Time;durP1;ratioP1;P1;durP2;ratioP2;P2;SDS_P1;SDS_P2;PMS_P1;PMS_P2;Temp;Humidity;BMP_temperature;BMP_pressure;BME280_temperature;BME280_humidity;BME280_pressure;Samples;Min_cycle;Max_cycle;Signal;HPM_P1;HPM_P2
2022/05/04 00:00:47;;;;;;;11.27;7.72;;;;;;;;;;6246567;28;20053;-70
2022/05/04 00:03:48;;;;;;;10.83;8.13;;;;;;;;;;6246461;28;20333;-70
2022/05/04 00:06:50;;;;;;;10.45;8.05;;;;;;;;;;6246743;28;20049;-71
2022/05/04 00:09:52;;;;;;;14.57;8.75;;;;;;;;;;6242512;28;20061;-70
2022/05/04 00:12:53;;;;;;;12.95;8.02;;;;;;;;;;6248696;28;20063;-70
2022/05/04 00:15:56;;;;;;;10.77;7.70;;;;;;;;;;6248168;28;20041;-70
2022/05/04 00:18:58;;;;;;;9.53;7.93;;;;;;;;;;6250965;28;20528;-70
2022/05/04 00:21:59;;;;;;;12.60;8.90;;;;;;;;;;6245655;28;20415;-70
2022/05/04 00:25:02;;;;;;;11.38;7.80;;;;;;;;;;6241798;28;20097;-70
2022/05/04 00:28:04;;;;;;;12.90;8.35;;;;;;;;;;6244674;28;20103;-70
2022/05/04 00:31:07;;;;;;;8.98;7.43;;;;;;;;;;6240002;28;20092;-70
2022/05/04 00:34:09;;;;;;;10.80;7.97;;;;;;;;;;6236995;28;20053;-70
2022/05/04 00:37:11;;;;;;;10.20;7.78;;;;;;;;;;6245375;28;20332;-70
2022/05/04 00:40:12;;;;;;;12.70;8.18;;;;;;;;;;6250743;28;20065;-72
2022/05/04 00:43:21;;;;;;;13.13;8.38;;;;;;;;;;6245770;28;20053;-70
2022/05/04 00:46:25;;;;;;;11.45;8.32;;;;;;;;;;6241898;28;20114;-70
2022/05/04 00:49:26;;;;;;;12.35;8.07;;;;;;;;;;6241987;28;20096;-70
2022/05/04 00:52:28;;;;;;;10.65;8.55;;;;;;;;;;6246812;28;20177;-70
2022/05/04 00:55:30;;;;;;;16.95;10.05;;;;;;;;;;6246998;28;20096;-71
2022/05/04 01:01:54;;;;;;;13.77;10.50;;;;;;;;;;6247805;28;20053;-70
2022/05/04 01:04:56;;;;;;;16.67;12.13;;;;;;;;;;6247858;28;20042;-70
2022/05/04 01:07:58;;;;;;;14.68;11.27;;;;;;;;;;6247883;28;20045;-70
2022/05/04 01:10:59;;;;;;;16.55;11.32;;;;;;;;;;6251855;28;20053;-70
2022/05/04 01:14:03;;;;;;;14.18;11.07;;;;;;;;;;6252329;28;20049;-70
2022/05/04 01:17:07;;;;;;;16.17;12.07;;;;;;;;;;6253954;28;20053;-70
2022/05/04 01:20:09;;;;;;;15.25;12.35;;;;;;;;;;6250108;28;20065;-69
2022/05/04 01:23:12;;;;;;;17.98;11.57;;;;;;;;;;6249619;28;20054;-70
2022/05/04 01:26:16;;;;;;;17.67;12.10;;;;;;;;;;6250546;28;20057;-70
2022/05/04 01:29:18;;;;;;;16.25;11.82;;;;;;;;;;6250676;28;20068;-71
2022/05/04 01:32:19;;;;;;;17.40;12.70;;;;;;;;;;6256567;28;20317;-70
2022/05/04 01:35:21;;;;;;;19.67;12.15;;;;;;;;;;6246471;28;20062;-70
2022/05/04 01:38:24;;;;;;;17.45;12.25;;;;;;;;;;6251619;28;20311;-69
2022/05/04 01:44:46;;;;;;;15.10;11.45;;;;;;;;;;6251893;28;20045;-70
2022/05/04 01:47:49;;;;;;;15.77;11.77;;;;;;;;;;6251452;28;20091;-71
2022/05/04 01:50:50;;;;;;;18.33;11.02;;;;;;;;;;6249094;28;20058;-70
2022/05/04 01:53:53;;;;;;;15.82;11.05;;;;;;;;;;6246693;28;20336;-70
2022/05/04 01:56:55;;;;;;;14.63;11.63;;;;;;;;;;6251115;28;20084;-71
2022/05/04 01:59:57;;;;;;;16.63;11.73;;;;;;;;;;6251753;28;20256;-71
2022/05/04 02:02:59;;;;;;;15.98;11.27;;;;;;;;;;6252844;28;20053;-70
2022/05/04 02:06:01;;;;;;;16.92;12.65;;;;;;;;;;6249657;28;20048;-70
2022/05/04 02:09:04;;;;;;;16.38;12.32;;;;;;;;;;6250988;28;20099;-71
2022/05/04 02:12:07;;;;;;;17.05;13.32;;;;;;;;;;6251720;28;20053;-71
2022/05/04 02:15:10;;;;;;;17.92;12.88;;;;;;;;;;6252518;28;20339;-71
2022/05/04 02:18:12;;;;;;;15.30;12.80;;;;;;;;;;6246660;28;20109;-70
2022/05/04 02:21:13;;;;;;;15.95;12.55;;;;;;;;;;6244586;28;20053;-70
2022/05/04 02:24:16;;;;;;;18.92;13.85;;;;;;;;;;6245037;28;20045;-70
2022/05/04 02:27:18;;;;;;;18.43;13.63;;;;;;;;;;6248609;28;20336;-70
2022/05/04 02:30:20;;;;;;;17.73;14.05;;;;;;;;;;6246775;28;20046;-71
2022/05/04 02:33:21;;;;;;;16.17;13.23;;;;;;;;;;6250589;28;20057;-70
2022/05/04 02:39:44;;;;;;;15.23;12.45;;;;;;;;;;6251834;28;20053;-71
2022/05/04 02:42:46;;;;;;;14.53;11.73;;;;;;;;;;6248651;28;20107;-70
2022/05/04 02:45:47;;;;;;;16.13;12.25;;;;;;;;;;6245452;28;20057;-70
2022/05/04 02:48:49;;;;;;;15.68;11.25;;;;;;;;;;6244098;28;20061;-70
2022/05/04 02:51:51;;;;;;;14.88;12.18;;;;;;;;;;6249333;28;20044;-70
2022/05/04 02:54:54;;;;;;;15.55;12.65;;;;;;;;;;6255464;28;20084;-68
2022/05/04 02:57:56;;;;;;;14.90;11.95;;;;;;;;;;6249714;28;20045;-70
2022/05/04 03:02:26;;;;;;;16.45;11.73;;;;;;;;;;6249733;28;20053;-70
2022/05/04 03:04:31;;;;;;;14.82;12.07;;;;;;;;;;6250560;28;20053;-69
2022/05/04 03:07:32;;;;;;;16.20;12.50;;;;;;;;;;6248390;28;20052;-70
2022/05/04 03:11:54;;;;;;;16.48;11.90;;;;;;;;;;6243237;28;20064;-69
2022/05/04 03:13:57;;;;;;;16.60;12.48;;;;;;;;;;6236104;28;20041;-70
2022/05/04 03:16:58;;;;;;;17.52;12.35;;;;;;;;;;6242169;28;20050;-70
2022/05/04 03:20:00;;;;;;;15.63;11.70;;;;;;;;;;6253795;28;20057;-70
2022/05/04 03:23:03;;;;;;;14.70;11.60;;;;;;;;;;6251689;28;20045;-70
2022/05/04 03:26:08;;;;;;;19.52;12.10;;;;;;;;;;6248697;28;20104;-70
2022/05/04 03:29:11;;;;;;;17.15;12.07;;;;;;;;;;6253919;28;20050;-69
2022/05/04 03:32:12;;;;;;;15.82;13.00;;;;;;;;;;6250110;28;20352;-70
2022/05/04 03:35:14;;;;;;;17.20;12.48;;;;;;;;;;6248878;28;20065;-70
2022/05/04 03:38:15;;;;;;;15.77;11.55;;;;;;;;;;6251386;28;20045;-69
2022/05/04 03:41:18;;;;;;;14.82;12.38;;;;;;;;;;6250235;28;20053;-70
2022/05/04 03:44:20;;;;;;;17.40;11.83;;;;;;;;;;6254992;28;20340;-71
2022/05/04 03:47:22;;;;;;;16.55;11.57;;;;;;;;;;6253199;28;20049;-70
2022/05/04 03:50:23;;;;;;;13.88;10.95;;;;;;;;;;6250412;28;20111;-70
2022/05/04 03:53:25;;;;;;;17.40;11.63;;;;;;;;;;6248073;28;20054;-69
2022/05/04 03:56:28;;;;;;;17.20;12.27;;;;;;;;;;6248929;28;20053;-71
2022/05/04 03:59:31;;;;;;;15.93;12.80;;;;;;;;;;6247188;28;20064;-70
2022/05/04 04:02:32;;;;;;;16.17;11.07;;;;;;;;;;6245626;28;20060;-70
2022/05/04 04:05:34;;;;;;;13.48;11.07;;;;;;;;;;6247732;28;20049;-70
2022/05/04 04:08:35;;;;;;;15.23;10.90;;;;;;;;;;6243152;28;20383;-69
2022/05/04 04:11:38;;;;;;;13.68;10.70;;;;;;;;;;6244680;28;20053;-70
2022/05/04 04:14:40;;;;;;;26.58;11.32;;;;;;;;;;6251293;28;20088;-70
2022/05/04 04:17:42;;;;;;;15.38;10.70;;;;;;;;;;6249777;28;20096;-70
2022/05/04 04:24:02;;;;;;;13.50;10.90;;;;;;;;;;6245361;28;20046;-70
2022/05/04 04:27:06;;;;;;;13.15;10.75;;;;;;;;;;6246516;28;20050;-70
2022/05/04 04:30:09;;;;;;;15.68;11.07;;;;;;;;;;6246651;28;20352;-70
2022/05/04 04:33:10;;;;;;;12.75;10.20;;;;;;;;;;6243198;28;20128;-70
2022/05/04 04:36:12;;;;;;;16.23;11.32;;;;;;;;;;6247646;28;20367;-70
2022/05/04 04:39:13;;;;;;;14.38;10.52;;;;;;;;;;6245165;28;20045;-70
2022/05/04 04:42:16;;;;;;;17.05;11.70;;;;;;;;;;6250491;28;20045;-69
2022/05/04 04:45:18;;;;;;;15.70;11.15;;;;;;;;;;6248889;28;20057;-70
2022/05/04 04:48:21;;;;;;;14.27;10.90;;;;;;;;;;6253739;28;20081;-70
2022/05/04 04:51:22;;;;;;;15.30;11.45;;;;;;;;;;6248485;28;20117;-70
2022/05/04 04:54:24;;;;;;;15.57;11.10;;;;;;;;;;6250647;28;20329;-70
2022/05/04 04:57:27;;;;;;;16.10;11.93;;;;;;;;;;6247789;28;20053;-70
2022/05/04 05:00:29;;;;;;;13.50;9.90;;;;;;;;;;6249204;28;20057;-70
2022/05/04 05:03:30;;;;;;;14.65;10.80;;;;;;;;;;6248590;28;20345;-70
2022/05/04 05:06:32;;;;;;;16.98;11.02;;;;;;;;;;6251964;28;20217;-70
2022/05/04 05:09:33;;;;;;;14.75;10.15;;;;;;;;;;6250045;28;20052;-70
2022/05/04 05:12:36;;;;;;;13.63;10.25;;;;;;;;;;6247884;28;20244;-70
2022/05/04 05:18:59;;;;;;;14.35;10.70;;;;;;;;;;6249536;28;20433;-71
2022/05/04 05:22:00;;;;;;;13.25;10.30;;;;;;;;;;6252104;28;20106;-71
2022/05/04 05:25:02;;;;;;;13.63;10.07;;;;;;;;;;6248931;28;20045;-72
2022/05/04 05:28:06;;;;;;;13.73;11.05;;;;;;;;;;6246204;28;20049;-72
2022/05/04 05:31:07;;;;;;;;;;;;;;;;;;6251352;28;20336;-72
2022/05/04 05:34:09;;;;;;;14.57;10.13;;;;;;;;;;6256301;28;19921;-72
2022/05/04 05:37:10;;;;;;;15.23;10.13;;;;;;;;;;6251270;28;20057;-72
2022/05/04 05:40:13;;;;;;;15.32;9.98;;;;;;;;;;6253863;28;20091;-72
2022/05/04 05:43:16;;;;;;;12.63;9.48;;;;;;;;;;6245922;28;20093;-71
2022/05/04 05:46:18;;;;;;;15.80;10.10;;;;;;;;;;6255312;28;20053;-67
2022/05/04 05:49:19;;;;;;;100.78;15.32;;;;;;;;;;6249211;28;20095;-67
2022/05/04 05:52:21;;;;;;;23.25;9.15;;;;;;;;;;6250533;28;20058;-67
2022/05/04 05:55:23;;;;;;;19.35;10.02;;;;;;;;;;6252529;28;20095;-67
2022/05/04 05:58:25;;;;;;;13.00;9.43;;;;;;;;;;6257406;28;20332;-69
2022/05/04 06:01:27;;;;;;;14.43;9.10;;;;;;;;;;6253947;28;20061;-67
2022/05/04 06:04:29;;;;;;;12.52;9.32;;;;;;;;;;6254321;28;20061;-68
2022/05/04 06:07:30;;;;;;;12.23;9.65;;;;;;;;;;6248844;28;20057;-68
2022/05/04 06:10:32;;;;;;;14.82;9.60;;;;;;;;;;6251751;28;20176;-69
2022/05/04 06:13:35;;;;;;;11.63;8.65;;;;;;;;;;6245023;28;20049;-68
2022/05/04 06:16:36;;;;;;;13.47;9.93;;;;;;;;;;6245243;28;20057;-68
2022/05/04 06:19:38;;;;;;;13.63;8.85;;;;;;;;;;6246324;28;20053;-68
2022/05/04 06:22:40;;;;;;;13.60;8.38;;;;;;;;;;6251012;28;20062;-68
2022/05/04 06:25:42;;;;;;;12.48;8.82;;;;;;;;;;6250573;28;20057;-68
2022/05/04 06:28:45;;;;;;;10.35;8.40;;;;;;;;;;6251719;28;20144;-67
2022/05/04 06:35:07;;;;;;;13.60;8.98;;;;;;;;;;6248107;28;20128;-67
2022/05/04 06:38:10;;;;;;;14.30;8.68;;;;;;;;;;6248475;28;20072;-68
2022/05/04 06:41:12;;;;;;;14.27;8.77;;;;;;;;;;6249194;28;20244;-69
2022/05/04 06:44:14;;;;;;;16.63;9.60;;;;;;;;;;6249334;28;20052;-68
2022/05/04 06:47:16;;;;;;;12.07;8.47;;;;;;;;;;6247770;28;20064;-68
2022/05/04 06:50:18;;;;;;;12.98;8.65;;;;;;;;;;6246043;28;20260;-68
2022/05/04 06:53:19;;;;;;;17.15;9.27;;;;;;;;;;6252450;28;20057;-68
2022/05/04 06:56:21;;;;;;;14.68;8.95;;;;;;;;;;6248679;28;20056;-68
2022/05/04 06:59:24;;;;;;;15.32;8.95;;;;;;;;;;6250349;28;20103;-68
2022/05/04 07:02:26;;;;;;;13.87;8.47;;;;;;;;;;6249954;28;20194;-68
2022/05/04 07:05:28;;;;;;;11.23;8.70;;;;;;;;;;6245150;28;20831;-68
2022/05/04 07:08:30;;;;;;;12.48;9.43;;;;;;;;;;6246027;28;20601;-68
2022/05/04 07:11:32;;;;;;;16.70;9.73;;;;;;;;;;6249352;28;20069;-69
2022/05/04 07:14:35;;;;;;;16.45;10.20;;;;;;;;;;6248141;28;20063;-68
2022/05/04 07:17:37;;;;;;;13.23;9.00;;;;;;;;;;6249187;28;20053;-68
2022/05/04 07:20:39;;;;;;;14.02;8.82;;;;;;;;;;6248931;28;20049;-68
2022/05/04 07:23:40;;;;;;;15.85;9.82;;;;;;;;;;6249413;28;20057;-68
2022/05/04 07:26:42;;;;;;;12.43;9.02;;;;;;;;;;6248499;28;20340;-68
2022/05/04 07:29:46;;;;;;;13.63;8.32;;;;;;;;;;6248753;28;20117;-67
2022/05/04 07:32:48;;;;;;;16.33;9.35;;;;;;;;;;6247985;28;20068;-68
2022/05/04 07:35:49;;;;;;;13.98;10.05;;;;;;;;;;6245938;28;20066;-68
2022/05/04 07:38:51;;;;;;;13.27;10.13;;;;;;;;;;6243753;28;20057;-68
2022/05/04 07:45:15;;;;;;;14.48;10.27;;;;;;;;;;6241789;28;20108;-68
2022/05/04 07:48:16;;;;;;;16.33;9.80;;;;;;;;;;6245755;28;20057;-68
2022/05/04 07:51:18;;;;;;;13.85;9.63;;;;;;;;;;6251643;28;20084;-68
2022/05/04 07:54:19;;;;;;;11.93;9.23;;;;;;;;;;6244042;28;20065;-67
2022/05/04 07:57:21;;;;;;;12.55;9.25;;;;;;;;;;6245700;28;20053;-68
2022/05/04 08:07:04;;;;;;;12.52;8.32;;;;;;;;;;6241143;28;20325;-67
2022/05/04 08:10:06;;;;;;;13.38;7.85;;;;;;;;;;6242175;28;20045;-68
2022/05/04 08:13:08;;;;;;;11.07;7.75;;;;;;;;;;6247191;28;20360;-68
2022/05/04 08:16:13;;;;;;;13.48;8.55;;;;;;;;;;6247439;28;20053;-68
2022/05/04 08:19:14;;;;;;;13.63;8.07;;;;;;;;;;6252093;28;20279;-68
2022/05/04 08:22:16;;;;;;;12.80;8.40;;;;;;;;;;6257500;28;20069;-68
2022/05/04 08:25:18;;;;;;;11.48;7.13;;;;;;;;;;6257602;28;20077;-68
2022/05/04 08:28:21;;;;;;;9.02;6.38;;;;;;;;;;6257620;28;20216;-68
2022/05/04 08:31:24;;;;;;;8.60;6.28;;;;;;;;;;6258424;28;20244;-68
2022/05/04 08:34:26;;;;;;;11.82;7.30;;;;;;;;;;6254558;28;20058;-68
2022/05/04 08:37:28;;;;;;;9.65;7.00;;;;;;;;;;6260725;28;20050;-69
2022/05/04 08:40:30;;;;;;;10.57;7.55;;;;;;;;;;6260815;28;20061;-69
2022/05/04 08:43:32;;;;;;;11.30;7.72;;;;;;;;;;6260557;28;20058;-68
2022/05/04 08:46:38;;;;;;;47.40;30.83;;;;;;;;;;6260094;28;20057;-66
2022/05/04 08:49:40;;;;;;;72.40;46.88;;;;;;;;;;6259849;28;20366;-65
2022/05/04 08:52:44;;;;;;;21.13;11.20;;;;;;;;;;6258201;28;20382;-70
2022/05/04 08:55:45;;;;;;;14.70;9.68;;;;;;;;;;6255238;28;20066;-70
2022/05/04 08:58:47;;;;;;;13.60;10.30;;;;;;;;;;6251020;28;20435;-69
2022/05/04 09:01:50;;;;;;;15.43;11.38;;;;;;;;;;6254111;28;20045;-70
2022/05/04 09:04:51;;;;;;;15.60;11.10;;;;;;;;;;6253232;28;20058;-70
2022/05/04 09:07:55;;;;;;;14.80;10.05;;;;;;;;;;6257032;28;20342;-69
2022/05/04 09:11:00;;;;;;;16.17;10.63;;;;;;;;;;6257023;28;20087;-70
2022/05/04 09:14:08;;;;;;;15.98;11.32;;;;;;;;;;6257250;28;20053;-70
2022/05/04 09:17:11;;;;;;;30.63;24.05;;;;;;;;;;6256094;28;20049;-65
2022/05/04 09:23:32;;;;;;;17.27;12.90;;;;;;;;;;6252217;28;20052;-67
2022/05/04 09:26:39;;;;;;;14.35;11.23;;;;;;;;;;6252946;28;20057;-67
2022/05/04 09:29:42;;;;;;;15.15;11.20;;;;;;;;;;6250002;28;20054;-67
2022/05/04 09:32:45;;;;;;;16.83;11.20;;;;;;;;;;6249708;28;20122;-67
2022/05/04 09:35:47;;;;;;;18.77;11.65;;;;;;;;;;6249813;28;20041;-67
2022/05/04 09:45:31;;;;;;;16.25;11.25;;;;;;;;;;6248349;28;20121;-66
2022/05/04 09:48:36;;;;;;;11.88;9.98;;;;;;;;;;6251843;28;20348;-67
2022/05/04 09:51:39;;;;;;;15.27;10.65;;;;;;;;;;6249496;28;20053;-68
2022/05/04 09:54:40;;;;;;;10.95;8.88;;;;;;;;;;6251065;28;20056;-67
2022/05/04 09:57:43;;;;;;;11.90;8.68;;;;;;;;;;6246929;28;20328;-66
2022/05/04 10:00:45;;;;;;;11.27;8.88;;;;;;;;;;6250674;28;20057;-66
2022/05/04 10:03:50;;;;;;;9.68;8.57;;;;;;;;;;6252119;28;20054;-65
2022/05/04 10:06:52;;;;;;;11.38;9.20;;;;;;;;;;6255186;28;20068;-65
2022/05/04 10:09:54;;;;;;;9.88;8.02;;;;;;;;;;6247941;28;20073;-67
2022/05/04 10:12:56;;;;;;;10.20;7.63;;;;;;;;;;6250062;28;20061;-66
2022/05/04 10:15:58;;;;;;;7.75;6.80;;;;;;;;;;6245685;28;20096;-66
2022/05/04 10:19:02;;;;;;;8.02;6.50;;;;;;;;;;6243321;28;20297;-67
2022/05/04 10:22:07;;;;;;;7.63;6.88;;;;;;;;;;6244921;28;20128;-67
2022/05/04 10:25:09;;;;;;;11.07;6.75;;;;;;;;;;6245877;28;20045;-70
2022/05/04 10:28:12;;;;;;;12.00;7.93;;;;;;;;;;6254381;28;20221;-69
2022/05/04 10:31:13;;;;;;;8.95;6.80;;;;;;;;;;6248143;28;20062;-69
2022/05/04 10:34:16;;;;;;;7.50;5.88;;;;;;;;;;6254061;28;20357;-69
2022/05/04 10:37:20;;;;;;;10.88;8.52;;;;;;;;;;6244868;28;20123;-71
2022/05/04 10:40:26;;;;;;;13.75;11.02;;;;;;;;;;6245790;28;20172;-70
2022/05/04 10:43:36;;;;;;;13.25;11.50;;;;;;;;;;6242283;28;20045;-69
2022/05/04 10:46:40;;;;;;;8.45;6.97;;;;;;;;;;6247294;28;20053;-71
2022/05/04 10:49:43;;;;;;;7.07;6.38;;;;;;;;;;6250027;28;20075;-70
2022/05/04 10:52:47;;;;;;;11.52;6.97;;;;;;;;;;6250660;28;20061;-71
2022/05/04 10:56:04;;;;;;;10.27;7.55;;;;;;;;;;6244316;28;20053;-70
2022/05/04 10:59:06;;;;;;;11.75;7.22;;;;;;;;;;6245160;28;20750;-71
2022/05/04 11:02:12;;;;;;;9.82;7.80;;;;;;;;;;6252926;28;20325;-71
2022/05/04 11:05:16;;;;;;;10.43;7.57;;;;;;;;;;6247575;28;20237;-70
2022/05/04 11:08:25;;;;;;;8.52;6.90;;;;;;;;;;6247735;28;20519;-69
2022/05/04 11:11:27;;;;;;;9.02;7.15;;;;;;;;;;6248625;28;20057;-71
2022/05/04 11:14:29;;;;;;;8.48;6.57;;;;;;;;;;6242318;28;20135;-70
2022/05/04 11:17:33;;;;;;;9.02;6.30;;;;;;;;;;6244970;28;20353;-70
2022/05/04 11:20:36;;;;;;;7.55;6.05;;;;;;;;;;6249290;28;20135;-70
2022/05/04 11:23:38;;;;;;;10.70;6.95;;;;;;;;;;6250612;28;20429;-71
2022/05/04 11:26:42;;;;;;;10.50;6.05;;;;;;;;;;6249327;28;20100;-70
2022/05/04 11:29:44;;;;;;;8.35;5.82;;;;;;;;;;6248686;28;20049;-71
2022/05/04 11:32:45;;;;;;;8.63;5.95;;;;;;;;;;6247602;28;20235;-71
2022/05/04 11:35:54;;;;;;;6.45;5.40;;;;;;;;;;6248756;28;20064;-71
2022/05/04 11:38:56;;;;;;;7.75;5.30;;;;;;;;;;6243269;28;20049;-70
2022/05/04 11:41:59;;;;;;;8.25;4.78;;;;;;;;;;6243235;28;20186;-71
2022/05/04 11:45:00;;;;;;;8.02;5.28;;;;;;;;;;6240469;28;20189;-71
2022/05/04 11:48:03;;;;;;;7.10;6.25;;;;;;;;;;6249969;28;20107;-70
2022/05/04 11:51:06;;;;;;;8.48;5.55;;;;;;;;;;6246662;28;20079;-71
2022/05/04 11:54:09;;;;;;;6.10;5.50;;;;;;;;;;6247306;28;20045;-70
2022/05/04 11:57:12;;;;;;;9.15;7.25;;;;;;;;;;6249689;28;20229;-71
2022/05/04 12:00:15;;;;;;;8.27;5.85;;;;;;;;;;6246964;28;20530;-67
2022/05/04 12:03:17;;;;;;;7.28;5.93;;;;;;;;;;6243825;28;20062;-70
2022/05/04 12:06:21;;;;;;;7.90;5.33;;;;;;;;;;6245020;28;20337;-70
2022/05/04 12:09:23;;;;;;;7.32;5.30;;;;;;;;;;6239445;28;20108;-70
2022/05/04 12:12:24;;;;;;;5.90;4.70;;;;;;;;;;6247827;28;20095;-70
2022/05/04 12:15:28;;;;;;;5.73;4.43;;;;;;;;;;6242636;28;20344;-69
2022/05/04 12:18:31;;;;;;;5.57;4.80;;;;;;;;;;6249561;28;20091;-72
2022/05/04 12:21:34;;;;;;;6.10;4.13;;;;;;;;;;6245428;28;20087;-69
2022/05/04 12:24:36;;;;;;;5.47;4.97;;;;;;;;;;6248078;28;20054;-69
2022/05/04 12:27:38;;;;;;;4.40;4.00;;;;;;;;;;6246636;28;20072;-70
2022/05/04 12:34:00;;;;;;;6.22;4.50;;;;;;;;;;6244457;28;20329;-70
2022/05/04 12:37:04;;;;;;;7.82;4.65;;;;;;;;;;6242667;28;20088;-70
2022/05/04 12:40:07;;;;;;;4.90;4.40;;;;;;;;;;6248521;28;20626;-70
2022/05/04 12:43:08;;;;;;;5.07;4.28;;;;;;;;;;6246652;28;20115;-70
2022/05/04 12:46:11;;;;;;;7.63;6.00;;;;;;;;;;6244408;28;20092;-70
2022/05/04 12:49:14;;;;;;;5.47;4.97;;;;;;;;;;6246637;28;20123;-70
2022/05/04 12:52:17;;;;;;;5.72;4.60;;;;;;;;;;6246800;28;20038;-71
2022/05/04 12:55:19;;;;;;;8.00;4.95;;;;;;;;;;6249015;28;20057;-70
2022/05/04 12:58:21;;;;;;;5.70;4.43;;;;;;;;;;6247021;28;20060;-70
2022/05/04 13:01:24;;;;;;;5.68;4.10;;;;;;;;;;6240282;28;20136;-67
2022/05/04 13:04:25;;;;;;;;;;;;;;;;;;6241906;28;20064;-66
2022/05/04 13:07:28;;;;;;;7.03;4.03;;;;;;;;;;6252645;28;20215;-65
2022/05/04 13:10:31;;;;;;;4.80;4.30;;;;;;;;;;6251509;28;20065;-66
2022/05/04 13:13:33;;;;;;;7.78;5.10;;;;;;;;;;6243290;28;20100;-66
2022/05/04 13:16:34;;;;;;;6.63;4.63;;;;;;;;;;6247967;28;20100;-65
2022/05/04 13:19:36;;;;;;;5.80;5.10;;;;;;;;;;6253958;28;20049;-65
2022/05/04 13:22:39;;;;;;;5.63;4.45;;;;;;;;;;6252380;28;20053;-66
2022/05/04 13:25:41;;;;;;;5.55;4.53;;;;;;;;;;6250348;28;20057;-66
2022/05/04 13:28:42;;;;;;;8.73;4.35;;;;;;;;;;6248390;28;20050;-66
2022/05/04 13:31:44;;;;;;;5.72;4.20;;;;;;;;;;6252881;28;20045;-65
2022/05/04 13:34:45;;;;;;;5.80;3.90;;;;;;;;;;6252739;28;20046;-66
2022/05/04 13:37:49;;;;;;;3.95;3.55;;;;;;;;;;6252014;28;20038;-68
2022/05/04 13:40:50;;;;;;;4.20;3.80;;;;;;;;;;6252538;28;20348;-68
2022/05/04 13:43:52;;;;;;;4.22;3.70;;;;;;;;;;6253432;28;20045;-68
2022/05/04 13:46:55;;;;;;;5.13;3.50;;;;;;;;;;6250535;28;20357;-68
2022/05/04 13:49:57;;;;;;;3.88;3.42;;;;;;;;;;6250997;28;20053;-69
2022/05/04 13:53:14;;;;;;;6.83;4.50;;;;;;;;;;6250127;28;20058;-68
2022/05/04 13:56:16;;;;;;;9.55;3.75;;;;;;;;;;6248848;28;20049;-69
2022/05/04 13:59:17;;;;;;;7.82;4.00;;;;;;;;;;6254197;28;20073;-68
2022/05/04 14:02:19;;;;;;;15.60;10.07;;;;;;;;;;6248562;28;20106;-65
2022/05/04 14:05:21;;;;;;;15.30;11.93;;;;;;;;;;6252968;28;20049;-67
2022/05/04 14:08:24;;;;;;;33.50;23.20;;;;;;;;;;6251583;28;20365;-68
2022/05/04 14:11:25;;;;;;;;;;;;;;;;;;6252055;28;20049;-68
2022/05/04 14:17:46;;;;;;;6.65;4.07;;;;;;;;;;6245429;28;20050;-68
2022/05/04 14:20:48;;;;;;;4.72;3.30;;;;;;;;;;6249272;28;20091;-69
2022/05/04 14:23:52;;;;;;;8.32;4.75;;;;;;;;;;6244435;28;20261;-68
2022/05/04 14:26:53;;;;;;;7.03;4.78;;;;;;;;;;6247103;28;20324;-70
2022/05/04 14:29:55;;;;;;;6.90;4.25;;;;;;;;;;6247215;28;20119;-68
2022/05/04 14:32:57;;;;;;;7.85;4.47;;;;;;;;;;6241091;28;20730;-68
2022/05/04 14:35:59;;;;;;;5.45;3.78;;;;;;;;;;6237438;28;20052;-68
2022/05/04 14:39:02;;;;;;;5.78;4.07;;;;;;;;;;6244895;28;20352;-68
2022/05/04 14:42:05;;;;;;;5.00;3.88;;;;;;;;;;6247451;28;20363;-67
2022/05/04 14:45:07;;;;;;;4.75;4.22;;;;;;;;;;6244485;28;20053;-69
2022/05/04 14:48:10;;;;;;;5.85;4.00;;;;;;;;;;6245176;28;20054;-69
2022/05/04 14:51:12;;;;;;;5.65;3.90;;;;;;;;;;6244307;28;20109;-69
2022/05/04 14:54:15;;;;;;;5.38;4.00;;;;;;;;;;6248839;28;20057;-67
2022/05/04 14:57:17;;;;;;;6.85;3.70;;;;;;;;;;6250013;28;20057;-66
2022/05/04 15:00:20;;;;;;;5.63;4.57;;;;;;;;;;6244635;28;20294;-67
2022/05/04 15:06:40;;;;;;;17.67;11.93;;;;;;;;;;6244783;28;20045;-66
2022/05/04 15:09:43;;;;;;;5.32;4.72;;;;;;;;;;6244578;28;20076;-71
2022/05/04 15:12:45;;;;;;;4.97;4.40;;;;;;;;;;6241760;28;20117;-69
2022/05/04 15:15:46;;;;;;;6.75;4.45;;;;;;;;;;6239275;28;20095;-72
2022/05/04 15:18:48;;;;;;;5.15;4.63;;;;;;;;;;6244258;28;20140;-68
2022/05/04 15:21:50;;;;;;;10.65;4.35;;;;;;;;;;6250134;28;20057;-68
2022/05/04 15:24:53;;;;;;;6.72;4.65;;;;;;;;;;6250069;28;20046;-69
2022/05/04 15:27:54;;;;;;;7.20;4.40;;;;;;;;;;6249967;28;20065;-69
2022/05/04 15:30:56;;;;;;;6.10;4.70;;;;;;;;;;6246605;28;20064;-69
2022/05/04 15:33:58;;;;;;;7.53;5.15;;;;;;;;;;6246233;28;20178;-69
2022/05/04 15:37:03;;;;;;;6.63;4.97;;;;;;;;;;6247866;28;20050;-69
2022/05/04 15:40:08;;;;;;;7.18;4.72;;;;;;;;;;6248037;28;20064;-70
2022/05/04 15:43:09;;;;;;;8.57;5.03;;;;;;;;;;6245556;28;20123;-69
2022/05/04 15:46:11;;;;;;;10.90;5.50;;;;;;;;;;6243910;28;20061;-69
2022/05/04 15:49:12;;;;;;;6.40;4.68;;;;;;;;;;6244565;28;20045;-70
2022/05/04 15:52:14;;;;;;;5.03;4.53;;;;;;;;;;6249993;28;20096;-70
2022/05/04 15:55:17;;;;;;;10.65;5.65;;;;;;;;;;6250162;28;20053;-70
2022/05/04 15:58:19;;;;;;;10.70;6.30;;;;;;;;;;6249429;28;20061;-70
2022/05/04 16:01:20;;;;;;;7.00;5.25;;;;;;;;;;6246637;28;20050;-70
2022/05/04 16:04:22;;;;;;;7.07;5.20;;;;;;;;;;6246823;28;20056;-70
2022/05/04 16:07:23;;;;;;;6.38;4.45;;;;;;;;;;6248541;28;20076;-70
2022/05/04 16:10:27;;;;;;;6.00;4.18;;;;;;;;;;6251619;28;20053;-70
2022/05/04 16:13:28;;;;;;;7.95;4.32;;;;;;;;;;6244856;28;20093;-69
2022/05/04 16:16:30;;;;;;;7.15;4.93;;;;;;;;;;6248504;28;20064;-69
2022/05/04 16:23:06;;;;;;;6.00;4.60;;;;;;;;;;6195485;28;20131;-70
2022/05/04 16:26:09;;;;;;;8.95;5.35;;;;;;;;;;6198182;28;20051;-69
2022/05/04 16:29:11;;;;;;;5.93;4.80;;;;;;;;;;6200738;28;20149;-69
2022/05/04 16:32:13;;;;;;;5.47;4.68;;;;;;;;;;6198982;28;20125;-68
2022/05/04 16:35:14;;;;;;;5.85;3.95;;;;;;;;;;6194736;28;20552;-68
2022/05/04 16:38:17;;;;;;;6.55;4.38;;;;;;;;;;6198485;28;20054;-69
2022/05/04 16:41:24;;;;;;;8.93;5.43;;;;;;;;;;6194308;28;20055;-69
2022/05/04 16:44:25;;;;;;;6.75;4.70;;;;;;;;;;6201428;28;20095;-69
2022/05/04 16:47:27;;;;;;;7.85;5.53;;;;;;;;;;6201402;28;20333;-69
2022/05/04 16:50:29;;;;;;;8.85;5.00;;;;;;;;;;6202910;28;20382;-70
2022/05/04 16:53:31;;;;;;;8.48;5.25;;;;;;;;;;6222704;28;20057;-68
2022/05/04 16:56:34;;;;;;;7.25;5.50;;;;;;;;;;6243383;28;20209;-68
2022/05/04 16:59:36;;;;;;;6.70;5.22;;;;;;;;;;6249912;28;20064;-70
2022/05/04 17:02:38;;;;;;;8.85;5.40;;;;;;;;;;6253045;28;20057;-69
2022/05/04 17:05:40;;;;;;;7.95;5.75;;;;;;;;;;6253274;28;20115;-70
2022/05/04 17:08:42;;;;;;;8.27;5.40;;;;;;;;;;6248905;28;20252;-67
2022/05/04 17:11:45;;;;;;;8.73;5.43;;;;;;;;;;6253976;28;20057;-72
2022/05/04 17:14:46;;;;;;;7.45;5.65;;;;;;;;;;6252525;28;20064;-68
2022/05/04 17:17:48;;;;;;;7.85;5.57;;;;;;;;;;6247261;28;20053;-70
2022/05/04 17:20:52;;;;;;;8.90;5.28;;;;;;;;;;6251402;28;20234;-70
2022/05/04 17:23:53;;;;;;;8.38;5.63;;;;;;;;;;6246885;28;20056;-70
2022/05/04 17:26:56;;;;;;;7.20;5.85;;;;;;;;;;6251555;28;20124;-70
2022/05/04 17:29:58;;;;;;;6.97;5.20;;;;;;;;;;6251040;28;20148;-70
2022/05/04 17:39:38;;;;;;;7.90;4.97;;;;;;;;;;6251727;28;20124;-69
2022/05/04 17:42:41;;;;;;;6.75;4.70;;;;;;;;;;6248125;28;20053;-71
2022/05/04 17:45:43;;;;;;;9.43;4.50;;;;;;;;;;6247681;28;20337;-74
2022/05/04 17:48:45;;;;;;;8.13;4.32;;;;;;;;;;6246024;28;20095;-72
2022/05/04 17:51:46;;;;;;;6.28;4.43;;;;;;;;;;6247003;28;20049;-70
2022/05/04 17:54:48;;;;;;;7.07;4.72;;;;;;;;;;6245399;28;20081;-69
2022/05/04 17:57:51;;;;;;;6.45;4.90;;;;;;;;;;6245571;28;20368;-69
2022/05/04 18:00:53;;;;;;;6.88;5.43;;;;;;;;;;6251946;28;20129;-69
2022/05/04 18:03:53;;;;;;;6.82;4.82;;;;;;;;;;6250289;28;20058;-69
2022/05/04 18:06:55;;;;;;;7.28;5.18;;;;;;;;;;6252447;28;20111;-69
2022/05/04 18:09:57;;;;;;;8.77;5.35;;;;;;;;;;6249101;28;20057;-68
2022/05/04 18:13:00;;;;;;;9.80;5.53;;;;;;;;;;6251957;28;20061;-68
2022/05/04 18:16:03;;;;;;;9.77;5.32;;;;;;;;;;6252653;28;20452;-69
2022/05/04 18:19:04;;;;;;;7.00;5.18;;;;;;;;;;6249339;28;20150;-69
2022/05/04 18:22:06;;;;;;;11.93;5.68;;;;;;;;;;6250726;28;20053;-69
2022/05/04 18:25:08;;;;;;;7.78;5.40;;;;;;;;;;6252188;28;20402;-72
2022/05/04 18:28:15;;;;;;;36.90;26.90;;;;;;;;;;6246914;28;20045;-73
2022/05/04 18:31:17;;;;;;;22.35;15.52;;;;;;;;;;6252881;28;20103;-71
2022/05/04 18:34:18;;;;;;;65.72;42.72;;;;;;;;;;6249731;28;20108;-71
2022/05/04 18:37:20;;;;;;;15.32;9.93;;;;;;;;;;6248298;28;20065;-69
2022/05/04 18:40:21;;;;;;;9.43;6.55;;;;;;;;;;6249829;28;20045;-69
2022/05/04 18:43:24;;;;;;;9.05;6.65;;;;;;;;;;6252034;28;20421;-69
2022/05/04 18:46:26;;;;;;;10.35;7.00;;;;;;;;;;6247455;28;20076;-69
2022/05/04 18:49:28;;;;;;;14.40;7.35;;;;;;;;;;6245985;28;20053;-69
2022/05/04 18:52:30;;;;;;;10.05;7.35;;;;;;;;;;6249154;28;20053;-69
2022/05/04 18:55:32;;;;;;;16.05;8.80;;;;;;;;;;6245769;28;20394;-69
2022/05/04 18:58:36;;;;;;;10.85;8.07;;;;;;;;;;6254713;28;20060;-69